createdAt,value
2022-08-26T00:01:11.686Z,65.46
2022-08-26T00:03:39.195Z,65.51
2022-08-26T00:06:07.057Z,65.47
2022-08-26T00:08:35.360Z,65.51
2022-08-26T00:11:04.930Z,65.55
2022-08-26T00:13:33.879Z,65.19
2022-08-26T00:16:00.479Z,65.76
2022-08-26T00:18:27.303Z,65.42
2022-08-26T00:20:57.431Z,65.63
2022-08-26T00:23:24.084Z,65.67
2022-08-26T00:25:51.477Z,65.46
2022-08-26T00:28:19.015Z,65.67
2022-08-26T00:30:49.132Z,65.61
2022-08-26T00:33:19.912Z,65.72
2022-08-26T00:35:47.643Z,65.47
2022-08-26T00:38:14.727Z,65.81
2022-08-26T00:40:47.197Z,65.56
2022-08-26T00:43:15.610Z,65.50
2022-08-26T00:45:50.736Z,65.40
2022-08-26T00:48:21.127Z,65.62
2022-08-26T00:50:52.825Z,65.59
2022-08-26T00:53:25.920Z,65.63
2022-08-26T00:56:03.600Z,65.38
2022-08-26T00:58:33.850Z,65.45
2022-08-26T01:01:01.388Z,65.57
2022-08-26T01:03:30.807Z,65.55
2022-08-26T01:06:00.120Z,65.38
2022-08-26T01:08:27.886Z,65.42
2022-08-26T01:10:57.078Z,65.53
2022-08-26T01:13:23.989Z,65.47
2022-08-26T01:15:55.600Z,65.49
2022-08-26T01:18:22.329Z,65.30
2022-08-26T01:21:02.845Z,65.19
2022-08-26T01:23:34.398Z,65.51
2022-08-26T01:26:06.315Z,65.34
2022-08-26T01:28:34.867Z,65.46
2022-08-26T01:31:03.979Z,65.26
2022-08-26T01:33:50.863Z,65.54
2022-08-26T01:36:17.337Z,65.49
2022-08-26T01:38:44.643Z,65.02
2022-08-26T01:41:19.731Z,65.15
2022-08-26T01:43:55.665Z,65.16
2022-08-26T01:46:23.990Z,65.33
2022-08-26T01:48:54.538Z,65.13
2022-08-26T01:51:23.199Z,65.19
2022-08-26T01:53:49.607Z,65.15
2022-08-26T01:56:16.387Z,65.33
2022-08-26T01:58:46.631Z,65.08
2022-08-26T02:01:13.876Z,65.01
2022-08-26T02:04:01.147Z,65.44
2022-08-26T02:06:27.630Z,65.17
2022-08-26T02:08:56.600Z,65.27
2022-08-26T02:11:23.074Z,65.33
2022-08-26T02:13:53.853Z,65.12
2022-08-26T02:16:24.612Z,65.16
2022-08-26T02:18:53.275Z,65.35
2022-08-26T02:21:19.937Z,65.28
2022-08-26T02:23:46.371Z,65.33
2022-08-26T02:26:19.229Z,65.09
2022-08-26T02:29:18.140Z,65.16
2022-08-26T02:31:48.396Z,65.29
2022-08-26T02:34:23.057Z,64.89
2022-08-26T02:36:49.475Z,64.96
2022-08-26T02:39:22.385Z,65.05
2022-08-26T02:41:49.354Z,65.11
2022-08-26T02:44:15.701Z,65.11
2022-08-26T02:46:42.900Z,65.29
2022-08-26T02:49:13.840Z,64.84
2022-08-26T02:51:40.645Z,65.07
2022-08-26T02:54:09.557Z,64.96
2022-08-26T02:56:36.142Z,65.09
2022-08-26T02:59:02.585Z,64.83
2022-08-26T03:01:32.490Z,65.03
2022-08-26T03:04:01.192Z,65.08
2022-08-26T03:06:27.809Z,65.13
2022-08-26T03:08:55.748Z,64.93
2022-08-26T03:11:22.403Z,65.00
2022-08-26T03:13:49.307Z,65.00
2022-08-26T03:16:16.556Z,65.05
2022-08-26T03:18:43.176Z,64.93
2022-08-26T03:21:19.534Z,65.02
2022-08-26T03:23:46.051Z,65.01
2022-08-26T03:26:14.261Z,64.92
2022-08-26T03:28:59.585Z,64.80
2022-08-26T03:31:25.975Z,64.83
2022-08-26T03:33:55.607Z,64.83
2022-08-26T03:36:25.371Z,64.91
2022-08-26T03:38:52.312Z,64.95
2022-08-26T03:41:18.691Z,64.63
2022-08-26T03:43:47.568Z,64.78
2022-08-26T03:46:14.297Z,64.97
2022-08-26T03:48:40.874Z,64.70
2022-08-26T03:51:14.463Z,64.66
2022-08-26T03:53:45.970Z,64.71
2022-08-26T03:56:12.760Z,64.75
2022-08-26T03:58:39.453Z,64.55
2022-08-26T04:01:09.786Z,64.66
2022-08-26T04:03:54.752Z,64.71
2022-08-26T04:06:21.244Z,64.75
2022-08-26T04:08:48.164Z,64.77
2022-08-26T04:11:22.131Z,64.79
2022-08-26T04:13:49.380Z,64.62
2022-08-26T04:16:17.512Z,64.64
2022-08-26T04:18:46.932Z,64.57
2022-08-26T04:21:15.384Z,64.50
2022-08-26T04:23:47.581Z,64.65
2022-08-26T04:26:15.092Z,64.51
2022-08-26T04:28:41.514Z,64.37
2022-08-26T04:31:12.229Z,64.36
2022-08-26T04:33:41.718Z,64.43
2022-08-26T04:36:09.022Z,64.48
2022-08-26T04:38:35.882Z,64.57
2022-08-26T04:41:03.250Z,64.46
2022-08-26T04:43:32.063Z,64.56
2022-08-26T04:46:01.811Z,64.44
2022-08-26T04:48:32.638Z,64.31
2022-08-26T04:51:03.022Z,64.42
2022-08-26T04:53:31.545Z,64.69
2022-08-26T04:55:57.963Z,64.37
2022-08-26T04:58:25.180Z,64.43
2022-08-26T05:00:53.769Z,64.31
2022-08-26T05:03:20.845Z,64.34
2022-08-26T05:05:49.961Z,64.54
2022-08-26T05:08:18.774Z,64.28
2022-08-26T05:10:50.823Z,64.28
2022-08-26T05:13:20.552Z,64.51
2022-08-26T05:15:48.221Z,64.28
2022-08-26T05:18:17.188Z,64.39
2022-08-26T05:20:49.816Z,64.39
2022-08-26T05:23:17.419Z,64.36
2022-08-26T05:25:47.114Z,64.22
2022-08-26T05:28:15.951Z,64.20
2022-08-26T05:30:42.496Z,64.22
2022-08-26T05:33:12.235Z,64.30
2022-08-26T05:35:39.232Z,64.38
2022-08-26T05:38:12.395Z,64.24
2022-08-26T05:40:41.985Z,64.21
2022-08-26T05:43:10.541Z,63.85
2022-08-26T05:45:42.319Z,63.72
2022-08-26T05:48:12.681Z,63.88
2022-08-26T05:50:45.337Z,63.53
2022-08-26T05:53:13.457Z,63.94
2022-08-26T05:55:50.777Z,63.66
2022-08-26T05:58:22.365Z,63.65
2022-08-26T06:01:06.221Z,63.92
2022-08-26T06:03:34.775Z,63.94
2022-08-26T06:06:10.701Z,64.29
2022-08-26T06:08:38.114Z,64.31
2022-08-26T06:11:10.768Z,64.05
2022-08-26T06:13:45.511Z,64.14
2022-08-26T06:16:16.542Z,64.43
2022-08-26T06:18:45.448Z,64.41
2022-08-26T06:21:18.323Z,64.22
2022-08-26T06:24:04.973Z,64.33
2022-08-26T06:26:32.195Z,64.38
2022-08-26T06:28:59.685Z,64.38
2022-08-26T06:31:28.936Z,64.51
2022-08-26T06:33:55.822Z,64.55
2022-08-26T06:36:25.376Z,64.46
2022-08-26T06:38:53.599Z,64.36
2022-08-26T06:41:21.453Z,64.34
2022-08-26T06:43:48.058Z,64.29
2022-08-26T06:46:17.202Z,64.42
2022-08-26T06:48:45.495Z,64.35
2022-08-26T06:51:14.976Z,64.53
2022-08-26T06:53:45.409Z,64.52
2022-08-26T06:56:12.727Z,64.37
2022-08-26T06:58:40.592Z,64.14
2022-08-26T07:01:30.294Z,64.34
2022-08-26T07:04:01.254Z,64.37
2022-08-26T07:06:28.140Z,64.43
2022-08-26T07:09:01.594Z,64.51
2022-08-26T07:11:30.977Z,64.55
2022-08-26T07:13:58.895Z,64.59
2022-08-26T07:16:27.450Z,64.13
2022-08-26T07:18:54.386Z,63.70
2022-08-26T07:21:22.304Z,63.76
2022-08-26T07:23:50.784Z,63.58
2022-08-26T07:26:26.652Z,63.73
2022-08-26T07:28:56.434Z,63.83
2022-08-26T07:31:25.722Z,63.84
2022-08-26T07:33:52.717Z,63.72
2022-08-26T07:36:21.304Z,63.86
2022-08-26T07:38:48.315Z,63.82
2022-08-26T07:41:17.473Z,63.92
2022-08-26T07:43:45.439Z,63.53
2022-08-26T07:46:18.311Z,63.85
2022-08-26T07:48:48.386Z,63.81
2022-08-26T07:51:17.484Z,63.94
2022-08-26T07:53:44.811Z,64.14
2022-08-26T07:56:14.780Z,64.15
2022-08-26T07:58:41.364Z,64.19
2022-08-26T08:01:09.129Z,64.07
2022-08-26T08:03:35.687Z,64.10
2022-08-26T08:06:02.062Z,64.07
2022-08-26T08:08:29.063Z,64.17
2022-08-26T08:10:56.278Z,64.04
2022-08-26T08:13:24.004Z,64.07
2022-08-26T08:15:50.664Z,64.22
2022-08-26T08:18:17.904Z,64.20
2022-08-26T08:21:04.688Z,64.04
2022-08-26T08:23:34.183Z,64.15
2022-08-26T08:26:06.465Z,63.91
2022-08-26T08:28:35.525Z,64.04
2022-08-26T08:31:02.204Z,63.89
2022-08-26T08:33:32.379Z,63.89
2022-08-26T08:36:00.438Z,64.03
2022-08-26T08:38:27.527Z,63.83
2022-08-26T08:40:53.953Z,63.93
2022-08-26T08:43:40.155Z,64.14
2022-08-26T08:46:16.515Z,64.09
2022-08-26T08:48:47.566Z,63.21
2022-08-26T08:51:45.842Z,63.36
2022-08-26T08:54:13.102Z,63.55
2022-08-26T08:56:44.675Z,63.05
2022-08-26T08:59:16.676Z,63.04
2022-08-26T09:02:28.773Z,63.45
2022-08-26T09:05:06.218Z,63.03
2022-08-26T09:07:43.131Z,63.30
2022-08-26T09:10:43.910Z,63.20
2022-08-26T09:13:17.146Z,62.88
2022-08-26T09:16:10.033Z,63.22
2022-08-26T09:18:54.059Z,63.07
2022-08-26T09:21:25.961Z,62.75
2022-08-26T09:23:55.702Z,62.65
2022-08-26T09:26:29.306Z,62.82
2022-08-26T09:31:47.999Z,62.69
2022-08-26T09:34:21.739Z,62.96
2022-08-26T09:36:50.143Z,62.79
2022-08-26T09:39:38.037Z,63.05
2022-08-26T09:42:18.673Z,63.18
2022-08-26T09:45:00.183Z,63.17
2022-08-26T09:47:32.459Z,63.07
2022-08-26T09:50:09.566Z,62.83
2022-08-26T09:52:36.380Z,63.26
2022-08-26T09:55:09.215Z,63.15
2022-08-26T09:57:45.612Z,63.37
2022-08-26T10:00:58.514Z,63.22
2022-08-26T10:03:31.625Z,63.33
2022-08-26T10:06:08.503Z,63.40
2022-08-26T10:08:47.693Z,63.31
2022-08-26T10:11:24.383Z,63.09
2022-08-26T10:14:03.028Z,62.89
2022-08-26T10:16:55.908Z,62.45
2022-08-26T10:19:29.296Z,61.98
2022-08-26T10:22:23.061Z,61.76
2022-08-26T10:24:55.490Z,61.65
2022-08-26T10:27:53.810Z,61.97
2022-08-26T10:30:23.483Z,61.49
2022-08-26T10:32:57.882Z,61.46
2022-08-26T10:35:24.584Z,61.45
2022-08-26T10:37:58.408Z,61.85
2022-08-26T10:40:29.376Z,61.94
2022-08-26T10:43:18.415Z,61.83
2022-08-26T10:45:51.712Z,62.10
2022-08-26T10:48:47.806Z,62.08
2022-08-26T10:51:18.599Z,62.01
2022-08-26T10:53:51.455Z,61.76
2022-08-26T10:56:43.384Z,61.90
2022-08-26T10:59:45.200Z,62.15
2022-08-26T11:02:33.430Z,61.97
2022-08-26T11:05:04.383Z,62.09
2022-08-26T11:07:33.690Z,61.62
2022-08-26T11:10:03.886Z,62.07
2022-08-26T11:12:36.196Z,62.22
2022-08-26T11:15:08.713Z,62.04
2022-08-26T11:17:43.891Z,61.97
2022-08-26T11:20:23.847Z,61.96
2022-08-26T11:22:52.979Z,61.99
2022-08-26T11:25:24.381Z,61.78
2022-08-26T11:27:58.046Z,61.82
2022-08-26T11:30:25.001Z,61.95
2022-08-26T11:32:58.039Z,61.88
2022-08-26T11:35:24.581Z,62.11
2022-08-26T11:37:57.573Z,61.98
2022-08-26T11:40:38.269Z,62.05
2022-08-26T11:43:12.383Z,61.94
2022-08-26T11:45:45.625Z,61.76
2022-08-26T11:48:20.084Z,61.52
2022-08-26T11:51:00.408Z,61.91
2022-08-26T11:53:27.950Z,61.49
2022-08-26T11:55:58.222Z,61.85
2022-08-26T11:58:26.907Z,61.49
2022-08-26T12:00:58.328Z,61.57
2022-08-26T12:03:38.869Z,61.40
2022-08-26T12:06:30.283Z,61.85
2022-08-26T12:09:01.844Z,61.60
2022-08-26T12:11:31.739Z,61.33
2022-08-26T12:14:04.731Z,61.63
2022-08-26T12:16:36.974Z,61.90
2022-08-26T12:19:27.492Z,61.98
2022-08-26T12:22:01.424Z,61.71
2022-08-26T12:24:28.302Z,61.83
2022-08-26T12:27:16.638Z,61.62
2022-08-26T12:29:43.452Z,61.32
2022-08-26T12:32:18.196Z,61.37
2022-08-26T12:34:48.839Z,61.26
2022-08-26T12:37:15.544Z,61.44
2022-08-26T12:39:46.699Z,61.44
2022-08-26T12:42:12.982Z,61.60
2022-08-26T12:44:53.126Z,61.53
2022-08-26T12:47:42.130Z,61.39
2022-08-26T12:50:25.643Z,61.74
2022-08-26T12:52:59.073Z,61.55
2022-08-26T12:55:53.865Z,61.35
2022-08-26T12:58:24.683Z,61.31
2022-08-26T13:01:06.647Z,61.54
2022-08-26T13:03:45.391Z,61.50
2022-08-26T13:06:25.649Z,61.62
2022-08-26T13:08:57.873Z,61.41
2022-08-26T13:11:40.426Z,61.68
2022-08-26T13:14:23.678Z,61.22
2022-08-26T13:16:51.817Z,61.70
2022-08-26T13:19:20.953Z,61.84
2022-08-26T13:21:49.968Z,61.61
2022-08-26T13:24:21.136Z,61.71
2022-08-26T13:26:51.363Z,61.75
2022-08-26T13:29:18.207Z,61.51
2022-08-26T13:31:45.557Z,61.66
2022-08-26T13:34:15.622Z,61.65
2022-08-26T13:36:45.001Z,62.10
2022-08-26T13:39:12.111Z,62.21
2022-08-26T13:41:38.517Z,62.13
2022-08-26T13:44:05.289Z,61.78
2022-08-26T13:46:31.880Z,61.62
2022-08-26T13:48:58.533Z,61.46
2022-08-26T13:51:26.158Z,61.46
2022-08-26T13:53:53.137Z,61.05
2022-08-26T13:56:19.883Z,60.63
2022-08-26T13:58:46.441Z,60.85
2022-08-26T14:01:14.206Z,60.52
2022-08-26T14:03:40.956Z,60.12
2022-08-26T14:06:07.556Z,60.09
2022-08-26T14:08:34.112Z,60.40
2022-08-26T14:11:00.584Z,60.13
2022-08-26T14:13:27.117Z,60.53
2022-08-26T14:15:53.901Z,60.48
2022-08-26T14:18:26.365Z,60.39
2022-08-26T14:20:54.972Z,60.20
2022-08-26T14:23:22.480Z,60.13
2022-08-26T14:25:48.972Z,59.90
2022-08-26T14:28:15.388Z,60.54
2022-08-26T14:30:44.002Z,60.03
2022-08-26T14:33:13.082Z,60.21
2022-08-26T14:35:40.475Z,60.20
2022-08-26T14:38:14.847Z,60.30
2022-08-26T14:40:44.529Z,60.68
2022-08-26T14:43:15.071Z,60.81
2022-08-26T14:48:14.744Z,60.93
2022-08-26T14:50:41.156Z,60.90
2022-08-26T14:53:25.838Z,61.05
2022-08-26T14:55:52.617Z,61.23
2022-08-26T14:58:18.967Z,60.92
2022-08-26T15:00:45.325Z,61.30
2022-08-26T15:03:11.777Z,61.20
2022-08-26T15:05:39.763Z,61.26
2022-08-26T15:08:10.131Z,61.17
2022-08-26T15:10:36.814Z,61.20
2022-08-26T15:13:03.195Z,61.39
2022-08-26T15:15:29.685Z,61.52
2022-08-26T15:17:56.456Z,61.27
2022-08-26T15:20:23.175Z,61.61
2022-08-26T15:22:49.601Z,60.90
2022-08-26T15:25:19.687Z,60.34
2022-08-26T15:27:46.115Z,60.40
2022-08-26T15:30:12.980Z,59.95
2022-08-26T15:32:39.451Z,59.87
2022-08-26T15:35:09.095Z,60.00
2022-08-26T15:37:36.215Z,59.82
2022-08-26T15:40:03.488Z,59.31
2022-08-26T15:42:29.907Z,59.25
2022-08-26T15:44:56.257Z,59.32
2022-08-26T15:47:23.655Z,59.21
2022-08-26T15:49:50.189Z,59.05
2022-08-26T15:52:17.211Z,59.08
2022-08-26T15:54:43.619Z,59.43
2022-08-26T15:57:12.400Z,58.87
2022-08-26T15:59:40.211Z,58.65
2022-08-26T16:02:07.364Z,58.06
2022-08-26T16:04:33.960Z,58.49
2022-08-26T16:07:00.837Z,58.43
2022-08-26T16:09:28.633Z,58.34
2022-08-26T16:11:57.327Z,58.31
2022-08-26T16:14:25.520Z,57.60
2022-08-26T16:16:51.918Z,57.65
2022-08-26T16:19:18.856Z,57.28
2022-08-26T16:21:45.391Z,57.22
2022-08-26T16:24:12.566Z,57.53
2022-08-26T16:26:41.317Z,57.39
2022-08-26T16:29:13.832Z,57.13
2022-08-26T16:31:41.118Z,57.77
2022-08-26T16:34:08.397Z,58.45
2022-08-26T16:36:36.629Z,58.05
2022-08-26T16:39:05.126Z,58.14
2022-08-26T16:41:31.884Z,58.25
2022-08-26T16:43:58.718Z,57.79
2022-08-26T16:46:26.406Z,57.87
2022-08-26T16:48:57.092Z,57.73
2022-08-26T16:51:27.049Z,57.98
2022-08-26T16:53:56.284Z,57.89
2022-08-26T16:56:33.816Z,58.23
2022-08-26T16:59:01.115Z,57.87
2022-08-26T17:01:27.613Z,57.75
2022-08-26T17:03:54.262Z,58.01
2022-08-26T17:06:20.720Z,57.69
2022-08-26T17:08:47.547Z,58.10
2022-08-26T17:11:15.158Z,57.39
2022-08-26T17:13:41.661Z,57.69
2022-08-26T17:16:09.865Z,56.89
2022-08-26T17:18:36.916Z,56.40
2022-08-26T17:21:07.350Z,56.88
2022-08-26T17:23:34.313Z,55.93
2022-08-26T17:26:00.946Z,56.12
2022-08-26T17:28:27.338Z,55.62
2022-08-26T17:30:56.502Z,55.12
2022-08-26T17:33:24.713Z,54.97
2022-08-26T17:35:52.888Z,55.29
2022-08-26T17:38:19.337Z,55.21
2022-08-26T17:40:45.692Z,55.17
2022-08-26T17:43:12.564Z,55.32
2022-08-26T17:45:40.429Z,55.63
2022-08-26T17:48:07.812Z,55.63
2022-08-26T17:50:34.318Z,55.41
2022-08-26T17:53:00.663Z,55.67
2022-08-26T17:55:27.122Z,55.72
2022-08-26T17:57:53.993Z,55.04
2022-08-26T18:00:22.676Z,55.41
2022-08-26T18:02:49.084Z,54.83
2022-08-26T18:05:17.366Z,54.48
2022-08-26T18:07:44.758Z,54.62
2022-08-26T18:10:15.326Z,54.38
2022-08-26T18:12:42.160Z,54.10
2022-08-26T18:15:10.682Z,53.88
2022-08-26T18:17:39.190Z,53.81
2022-08-26T18:20:08.482Z,53.94
2022-08-26T18:22:34.874Z,53.71
2022-08-26T18:25:01.229Z,54.02
2022-08-26T18:27:27.584Z,53.68
2022-08-26T18:29:56.351Z,53.72
2022-08-26T18:32:22.915Z,53.91
2022-08-26T18:34:49.368Z,54.61
2022-08-26T18:37:15.768Z,54.99
2022-08-26T18:39:42.152Z,55.08
2022-08-26T18:42:08.876Z,54.99
2022-08-26T18:44:35.476Z,54.82
2022-08-26T18:47:02.112Z,54.79
2022-08-26T18:49:29.256Z,54.79
2022-08-26T18:51:55.668Z,55.11
2022-08-26T18:54:22.344Z,55.08
2022-08-26T18:56:48.785Z,54.88
2022-08-26T18:59:15.275Z,54.75
2022-08-26T19:01:42.535Z,54.92
2022-08-26T19:04:14.766Z,54.91
2022-08-26T19:06:45.147Z,55.07
2022-08-26T19:09:12.288Z,55.11
2022-08-26T19:11:43.053Z,54.86
2022-08-26T19:14:13.490Z,55.10
2022-08-26T19:16:41.855Z,54.94
2022-08-26T19:19:08.372Z,54.85
2022-08-26T19:21:36.394Z,55.08
2022-08-26T19:24:05.763Z,55.03
2022-08-26T19:26:32.785Z,54.79
2022-08-26T19:28:59.444Z,54.79
2022-08-26T19:31:26.230Z,54.93
2022-08-26T19:33:52.824Z,55.16
2022-08-26T19:36:22.384Z,54.87
2022-08-26T19:38:49.387Z,55.00
2022-08-26T19:41:19.148Z,54.97
2022-08-26T19:43:46.234Z,55.08
2022-08-26T19:46:18.180Z,55.21
2022-08-26T19:48:45.983Z,55.59
2022-08-26T19:51:17.910Z,55.89
2022-08-26T19:53:46.139Z,55.66
2022-08-26T19:56:14.159Z,55.58
2022-08-26T19:58:41.655Z,55.32
2022-08-26T20:01:08.540Z,55.39
2022-08-26T20:03:36.012Z,55.53
2022-08-26T20:06:05.158Z,55.28
2022-08-26T20:08:32.742Z,55.14
2022-08-26T20:11:09.191Z,55.37
2022-08-26T20:13:36.526Z,55.23
2022-08-26T20:16:03.126Z,55.37
2022-08-26T20:18:48.312Z,55.59
2022-08-26T20:21:27.693Z,55.85
2022-08-26T20:24:00.829Z,55.94
2022-08-26T20:26:32.716Z,56.01
2022-08-26T20:28:59.507Z,55.90
2022-08-26T20:31:27.324Z,56.23
2022-08-26T20:33:53.969Z,56.27
2022-08-26T20:36:23.576Z,57.10
2022-08-26T20:38:50.542Z,56.59
2022-08-26T20:41:18.072Z,56.85
2022-08-26T20:43:44.689Z,56.60
2022-08-26T20:46:18.016Z,56.78
2022-08-26T20:48:46.642Z,56.69
2022-08-26T20:51:13.048Z,56.36
2022-08-26T20:53:39.555Z,56.38
2022-08-26T20:56:09.320Z,56.26
2022-08-26T20:58:36.441Z,56.13
2022-08-26T21:01:07.507Z,56.33
2022-08-26T21:03:35.516Z,56.10
2022-08-26T21:06:03.465Z,55.98
2022-08-26T21:08:29.850Z,55.63
2022-08-26T21:10:59.484Z,55.86
2022-08-26T21:13:25.820Z,55.46
2022-08-26T21:15:55.796Z,55.64
2022-08-26T21:18:22.190Z,55.77
2022-08-26T21:20:48.596Z,55.42
2022-08-26T21:23:14.947Z,55.33
2022-08-26T21:25:41.724Z,55.41
2022-08-26T21:28:08.123Z,55.14
2022-08-26T21:30:38.144Z,55.13
2022-08-26T21:33:04.547Z,55.15
2022-08-26T21:35:30.892Z,55.00
2022-08-26T21:37:57.248Z,54.82
2022-08-26T21:40:23.836Z,54.16
2022-08-26T21:42:50.300Z,54.77
2022-08-26T21:45:16.876Z,54.67
2022-08-26T21:47:43.948Z,54.35
2022-08-26T21:50:10.834Z,54.63
2022-08-26T21:52:37.691Z,54.55
2022-08-26T21:55:09.024Z,54.75
2022-08-26T21:57:36.320Z,54.44
2022-08-26T22:00:04.643Z,54.49
2022-08-26T22:02:31.316Z,54.51
2022-08-26T22:04:57.716Z,54.45
2022-08-26T22:07:24.153Z,54.35
2022-08-26T22:09:50.496Z,54.36
2022-08-26T22:12:18.227Z,54.20
2022-08-26T22:14:45.616Z,54.28
2022-08-26T22:17:12.116Z,53.97
2022-08-26T22:19:45.953Z,53.75
2022-08-26T22:22:14.266Z,53.64
2022-08-26T22:24:40.764Z,53.88
2022-08-26T22:27:07.208Z,54.10
2022-08-26T22:29:33.898Z,53.83
2022-08-26T22:32:01.443Z,53.51
2022-08-26T22:34:28.244Z,53.58
2022-08-26T22:36:55.442Z,53.69
2022-08-26T22:39:24.783Z,53.59
2022-08-26T22:41:53.221Z,53.67
2022-08-26T22:44:22.049Z,53.52
2022-08-26T22:46:50.431Z,53.55
2022-08-26T22:49:17.411Z,53.46
2022-08-26T22:51:45.180Z,53.56
2022-08-26T22:54:12.295Z,53.65
2022-08-26T22:56:39.544Z,53.60
2022-08-26T22:59:07.705Z,53.57
2022-08-26T23:01:36.717Z,53.32
2022-08-26T23:04:04.300Z,53.60
2022-08-26T23:06:30.891Z,53.26
2022-08-26T23:08:57.248Z,52.86
2022-08-26T23:11:23.633Z,53.07
2022-08-26T23:13:50.045Z,53.12
2022-08-26T23:16:16.428Z,52.91
2022-08-26T23:18:42.857Z,53.20
2022-08-26T23:21:10.545Z,53.09
2022-08-26T23:23:38.272Z,52.88
2022-08-26T23:26:06.832Z,53.10
2022-08-26T23:28:34.642Z,53.17
2022-08-26T23:31:01.004Z,52.93
2022-08-26T23:33:47.707Z,53.08
2022-08-26T23:36:17.917Z,52.88
2022-08-26T23:38:45.028Z,53.21
2022-08-26T23:41:19.725Z,53.03
2022-08-26T23:43:46.063Z,53.12
2022-08-26T23:46:12.467Z,53.06
2022-08-26T23:48:38.987Z,53.18
2022-08-26T23:51:24.127Z,52.90
2022-08-26T23:53:50.770Z,53.01
2022-08-26T23:56:17.743Z,53.17
2022-08-26T23:58:44.859Z,53.10
